sensor_id;sensor_type;location;lat;lon;timestamp;temperature;humidity
57843;DHT22;43673;51.058;3.734;2022-08-19T00:01:26;20.50;99.90
57843;DHT22;43673;51.058;3.734;2022-08-19T00:03:53;20.40;99.90
57843;DHT22;43673;51.058;3.734;2022-08-19T00:06:22;20.40;99.90
57843;DHT22;43673;51.058;3.734;2022-08-19T00:08:48;20.40;99.90
57843;DHT22;43673;51.058;3.734;2022-08-19T00:11:14;20.30;99.90
57843;DHT22;43673;51.058;3.734;2022-08-19T00:13:40;20.30;99.90
57843;DHT22;43673;51.058;3.734;2022-08-19T00:16:06;20.30;99.90
57843;DHT22;43673;51.058;3.734;2022-08-19T00:18:33;20.20;99.90
57843;DHT22;43673;51.058;3.734;2022-08-19T00:20:59;20.20;99.90
57843;DHT22;43673;51.058;3.734;2022-08-19T00:23:26;20.20;99.90
57843;DHT22;43673;51.058;3.734;2022-08-19T00:25:53;20.10;99.90
57843;DHT22;43673;51.058;3.734;2022-08-19T00:28:19;20.10;99.90
57843;DHT22;43673;51.058;3.734;2022-08-19T00:30:46;20.00;99.90
57843;DHT22;43673;51.058;3.734;2022-08-19T00:33:17;20.00;99.90
57843;DHT22;43673;51.058;3.734;2022-08-19T00:35:44;20.10;99.90
57843;DHT22;43673;51.058;3.734;2022-08-19T00:38:10;20.00;99.90
57843;DHT22;43673;51.058;3.734;2022-08-19T00:40:36;20.00;99.90
57843;DHT22;43673;51.058;3.734;2022-08-19T00:43:12;19.90;99.90
57843;DHT22;43673;51.058;3.734;2022-08-19T00:45:41;19.90;99.90
57843;DHT22;43673;51.058;3.734;2022-08-19T00:48:09;19.90;99.90
57843;DHT22;43673;51.058;3.734;2022-08-19T00:50:35;19.80;99.90
57843;DHT22;43673;51.058;3.734;2022-08-19T00:53:02;19.60;99.90
57843;DHT22;43673;51.058;3.734;2022-08-19T00:55:28;19.70;99.90
57843;DHT22;43673;51.058;3.734;2022-08-19T00:58:04;19.50;99.90
57843;DHT22;43673;51.058;3.734;2022-08-19T01:00:33;19.70;99.90
57843;DHT22;43673;51.058;3.734;2022-08-19T01:03:06;19.60;99.90
57843;DHT22;43673;51.058;3.734;2022-08-19T01:05:33;19.60;99.90
57843;DHT22;43673;51.058;3.734;2022-08-19T01:08:02;19.60;99.90
57843;DHT22;43673;51.058;3.734;2022-08-19T01:10:45;19.60;99.90
57843;DHT22;43673;51.058;3.734;2022-08-19T01:13:14;19.60;99.90
57843;DHT22;43673;51.058;3.734;2022-08-19T01:15:44;19.60;99.90
57843;DHT22;43673;51.058;3.734;2022-08-19T01:18:15;19.60;99.90
57843;DHT22;43673;51.058;3.734;2022-08-19T01:20:42;19.60;99.90
57843;DHT22;43673;51.058;3.734;2022-08-19T01:23:09;19.60;99.90
57843;DHT22;43673;51.058;3.734;2022-08-19T01:25:42;19.60;99.90
57843;DHT22;43673;51.058;3.734;2022-08-19T01:28:15;19.50;99.90
57843;DHT22;43673;51.058;3.734;2022-08-19T01:30:41;19.50;99.90
57843;DHT22;43673;51.058;3.734;2022-08-19T01:33:08;19.50;99.90
57843;DHT22;43673;51.058;3.734;2022-08-19T01:35:35;19.40;99.90
57843;DHT22;43673;51.058;3.734;2022-08-19T01:38:03;19.40;99.90
57843;DHT22;43673;51.058;3.734;2022-08-19T01:40:34;19.40;99.90
57843;DHT22;43673;51.058;3.734;2022-08-19T01:43:00;19.40;99.90
57843;DHT22;43673;51.058;3.734;2022-08-19T01:45:29;19.30;99.90
57843;DHT22;43673;51.058;3.734;2022-08-19T01:47:55;19.30;99.90
57843;DHT22;43673;51.058;3.734;2022-08-19T01:50:22;19.30;99.90
57843;DHT22;43673;51.058;3.734;2022-08-19T01:52:47;19.20;99.90
57843;DHT22;43673;51.058;3.734;2022-08-19T01:55:16;19.20;99.90
57843;DHT22;43673;51.058;3.734;2022-08-19T01:57:47;19.20;99.90
57843;DHT22;43673;51.058;3.734;2022-08-19T02:00:16;19.20;99.90
57843;DHT22;43673;51.058;3.734;2022-08-19T02:02:42;19.10;99.90
57843;DHT22;43673;51.058;3.734;2022-08-19T02:05:09;19.10;99.90
57843;DHT22;43673;51.058;3.734;2022-08-19T02:07:36;19.10;99.90
57843;DHT22;43673;51.058;3.734;2022-08-19T02:10:04;19.00;99.90
57843;DHT22;43673;51.058;3.734;2022-08-19T02:12:31;19.00;99.90
57843;DHT22;43673;51.058;3.734;2022-08-19T02:14:56;19.00;99.90
57843;DHT22;43673;51.058;3.734;2022-08-19T02:17:22;18.90;99.90
57843;DHT22;43673;51.058;3.734;2022-08-19T02:19:48;18.90;99.90
57843;DHT22;43673;51.058;3.734;2022-08-19T02:22:14;18.90;99.90
57843;DHT22;43673;51.058;3.734;2022-08-19T02:24:40;18.90;99.90
57843;DHT22;43673;51.058;3.734;2022-08-19T02:27:05;18.80;99.90
57843;DHT22;43673;51.058;3.734;2022-08-19T02:29:31;18.80;99.90
57843;DHT22;43673;51.058;3.734;2022-08-19T02:31:57;18.80;99.90
57843;DHT22;43673;51.058;3.734;2022-08-19T02:34:23;18.80;99.90
57843;DHT22;43673;51.058;3.734;2022-08-19T02:36:51;18.80;99.90
57843;DHT22;43673;51.058;3.734;2022-08-19T02:39:17;18.80;99.90
57843;DHT22;43673;51.058;3.734;2022-08-19T02:41:43;18.80;99.90
57843;DHT22;43673;51.058;3.734;2022-08-19T02:44:08;18.70;99.90
57843;DHT22;43673;51.058;3.734;2022-08-19T02:46:35;18.70;99.90
57843;DHT22;43673;51.058;3.734;2022-08-19T02:49:04;18.70;99.90
57843;DHT22;43673;51.058;3.734;2022-08-19T02:51:36;18.70;99.90
57843;DHT22;43673;51.058;3.734;2022-08-19T02:54:03;18.70;99.90
57843;DHT22;43673;51.058;3.734;2022-08-19T02:56:30;18.70;99.90
57843;DHT22;43673;51.058;3.734;2022-08-19T02:58:56;18.60;99.90
57843;DHT22;43673;51.058;3.734;2022-08-19T03:01:31;18.60;99.90
57843;DHT22;43673;51.058;3.734;2022-08-19T03:03:59;18.70;99.90
57843;DHT22;43673;51.058;3.734;2022-08-19T03:06:26;18.70;99.90
57843;DHT22;43673;51.058;3.734;2022-08-19T03:08:52;18.70;99.90
57843;DHT22;43673;51.058;3.734;2022-08-19T03:11:27;18.70;99.90
57843;DHT22;43673;51.058;3.734;2022-08-19T03:13:53;18.70;99.90
57843;DHT22;43673;51.058;3.734;2022-08-19T03:16:21;18.70;99.90
57843;DHT22;43673;51.058;3.734;2022-08-19T03:18:47;18.70;99.90
57843;DHT22;43673;51.058;3.734;2022-08-19T03:21:22;18.60;99.90
57843;DHT22;43673;51.058;3.734;2022-08-19T03:23:49;18.60;99.90
57843;DHT22;43673;51.058;3.734;2022-08-19T03:26:15;18.60;99.90
57843;DHT22;43673;51.058;3.734;2022-08-19T03:28:44;18.60;99.90
57843;DHT22;43673;51.058;3.734;2022-08-19T03:31:16;18.60;99.90
57843;DHT22;43673;51.058;3.734;2022-08-19T03:33:42;18.60;99.90
57843;DHT22;43673;51.058;3.734;2022-08-19T03:36:10;18.70;99.90
57843;DHT22;43673;51.058;3.734;2022-08-19T03:38:39;18.70;99.90
57843;DHT22;43673;51.058;3.734;2022-08-19T03:41:08;18.70;99.90
57843;DHT22;43673;51.058;3.734;2022-08-19T03:43:36;18.70;99.90
57843;DHT22;43673;51.058;3.734;2022-08-19T03:46:08;18.70;99.90
57843;DHT22;43673;51.058;3.734;2022-08-19T03:48:35;18.70;99.90
57843;DHT22;43673;51.058;3.734;2022-08-19T03:51:02;18.70;99.90
57843;DHT22;43673;51.058;3.734;2022-08-19T03:53:29;18.70;99.90
57843;DHT22;43673;51.058;3.734;2022-08-19T03:55:57;18.70;99.90
57843;DHT22;43673;51.058;3.734;2022-08-19T03:58:26;18.70;99.90
57843;DHT22;43673;51.058;3.734;2022-08-19T04:00:53;18.70;99.90
57843;DHT22;43673;51.058;3.734;2022-08-19T04:03:19;18.70;99.90
57843;DHT22;43673;51.058;3.734;2022-08-19T04:05:46;18.60;99.90
57843;DHT22;43673;51.058;3.734;2022-08-19T04:08:12;18.60;99.90
57843;DHT22;43673;51.058;3.734;2022-08-19T04:10:38;18.60;99.90
57843;DHT22;43673;51.058;3.734;2022-08-19T04:13:05;18.60;99.90
57843;DHT22;43673;51.058;3.734;2022-08-19T04:15:32;18.50;99.90
57843;DHT22;43673;51.058;3.734;2022-08-19T04:18:04;18.50;99.90
57843;DHT22;43673;51.058;3.734;2022-08-19T04:20:40;18.50;99.90
57843;DHT22;43673;51.058;3.734;2022-08-19T04:23:06;18.50;99.90
57843;DHT22;43673;51.058;3.734;2022-08-19T04:25:40;18.50;99.90
57843;DHT22;43673;51.058;3.734;2022-08-19T04:28:08;18.60;99.90
57843;DHT22;43673;51.058;3.734;2022-08-19T04:30:44;18.50;99.90
57843;DHT22;43673;51.058;3.734;2022-08-19T04:33:12;18.50;99.90
57843;DHT22;43673;51.058;3.734;2022-08-19T04:35:40;18.50;99.90
57843;DHT22;43673;51.058;3.734;2022-08-19T04:38:07;18.60;99.90
57843;DHT22;43673;51.058;3.734;2022-08-19T04:40:34;18.60;99.90
57843;DHT22;43673;51.058;3.734;2022-08-19T04:43:18;18.50;99.90
57843;DHT22;43673;51.058;3.734;2022-08-19T04:45:45;18.50;99.90
57843;DHT22;43673;51.058;3.734;2022-08-19T04:48:11;18.60;99.90
57843;DHT22;43673;51.058;3.734;2022-08-19T04:50:42;18.50;99.90
57843;DHT22;43673;51.058;3.734;2022-08-19T04:53:08;18.50;99.90
57843;DHT22;43673;51.058;3.734;2022-08-19T04:55:34;18.50;99.90
57843;DHT22;43673;51.058;3.734;2022-08-19T04:58:01;18.50;99.90
57843;DHT22;43673;51.058;3.734;2022-08-19T05:00:27;18.60;99.90
57843;DHT22;43673;51.058;3.734;2022-08-19T05:02:52;18.60;99.90
57843;DHT22;43673;51.058;3.734;2022-08-19T05:05:18;18.60;99.90
57843;DHT22;43673;51.058;3.734;2022-08-19T05:07:45;18.70;99.90
57843;DHT22;43673;51.058;3.734;2022-08-19T05:10:11;18.70;99.90
57843;DHT22;43673;51.058;3.734;2022-08-19T05:12:37;18.80;99.90
57843;DHT22;43673;51.058;3.734;2022-08-19T05:15:04;18.90;99.90
57843;DHT22;43673;51.058;3.734;2022-08-19T05:17:31;18.90;99.90
57843;DHT22;43673;51.058;3.734;2022-08-19T05:19:57;19.10;99.90
57843;DHT22;43673;51.058;3.734;2022-08-19T05:22:42;19.40;99.90
57843;DHT22;43673;51.058;3.734;2022-08-19T05:25:12;19.60;99.90
57843;DHT22;43673;51.058;3.734;2022-08-19T05:27:38;19.70;99.90
57843;DHT22;43673;51.058;3.734;2022-08-19T05:30:05;19.80;99.90
57843;DHT22;43673;51.058;3.734;2022-08-19T05:32:31;19.90;99.90
57843;DHT22;43673;51.058;3.734;2022-08-19T05:34:56;19.90;99.90
57843;DHT22;43673;51.058;3.734;2022-08-19T05:37:22;20.00;99.90
57843;DHT22;43673;51.058;3.734;2022-08-19T05:39:48;20.10;99.90
57843;DHT22;43673;51.058;3.734;2022-08-19T05:42:15;20.20;99.90
57843;DHT22;43673;51.058;3.734;2022-08-19T05:44:42;20.20;99.90
57843;DHT22;43673;51.058;3.734;2022-08-19T05:47:13;20.30;99.90
57843;DHT22;43673;51.058;3.734;2022-08-19T05:49:40;20.30;99.90
57843;DHT22;43673;51.058;3.734;2022-08-19T05:52:09;20.40;99.90
57843;DHT22;43673;51.058;3.734;2022-08-19T05:54:37;20.50;99.90
57843;DHT22;43673;51.058;3.734;2022-08-19T05:57:05;20.60;99.90
57843;DHT22;43673;51.058;3.734;2022-08-19T05:59:31;20.60;99.90
57843;DHT22;43673;51.058;3.734;2022-08-19T06:01:57;20.80;99.90
57843;DHT22;43673;51.058;3.734;2022-08-19T06:04:23;20.80;99.90
57843;DHT22;43673;51.058;3.734;2022-08-19T06:06:53;20.80;99.90
57843;DHT22;43673;51.058;3.734;2022-08-19T06:09:21;20.80;99.90
57843;DHT22;43673;51.058;3.734;2022-08-19T06:11:50;20.80;99.90
57843;DHT22;43673;51.058;3.734;2022-08-19T06:14:23;20.80;99.90
57843;DHT22;43673;51.058;3.734;2022-08-19T06:16:49;20.80;99.90
57843;DHT22;43673;51.058;3.734;2022-08-19T06:19:19;21.00;99.90
57843;DHT22;43673;51.058;3.734;2022-08-19T06:21:47;21.10;99.90
57843;DHT22;43673;51.058;3.734;2022-08-19T06:24:16;21.10;99.90
57843;DHT22;43673;51.058;3.734;2022-08-19T06:26:45;21.20;99.90
57843;DHT22;43673;51.058;3.734;2022-08-19T06:29:13;21.40;99.90
57843;DHT22;43673;51.058;3.734;2022-08-19T06:31:45;21.60;99.90
57843;DHT22;43673;51.058;3.734;2022-08-19T06:34:11;21.80;99.90
57843;DHT22;43673;51.058;3.734;2022-08-19T06:36:41;22.30;99.90
57843;DHT22;43673;51.058;3.734;2022-08-19T06:39:25;22.50;99.90
57843;DHT22;43673;51.058;3.734;2022-08-19T06:41:54;22.70;99.90
57843;DHT22;43673;51.058;3.734;2022-08-19T06:44:21;22.90;99.90
57843;DHT22;43673;51.058;3.734;2022-08-19T06:46:47;23.20;99.90
57843;DHT22;43673;51.058;3.734;2022-08-19T06:49:16;23.60;99.90
57843;DHT22;43673;51.058;3.734;2022-08-19T06:51:42;23.60;99.90
57843;DHT22;43673;51.058;3.734;2022-08-19T06:54:09;23.50;99.90
57843;DHT22;43673;51.058;3.734;2022-08-19T06:56:36;23.40;99.90
57843;DHT22;43673;51.058;3.734;2022-08-19T06:59:07;23.10;99.90
57843;DHT22;43673;51.058;3.734;2022-08-19T07:01:47;23.00;99.90
57843;DHT22;43673;51.058;3.734;2022-08-19T07:04:17;23.00;99.90
57843;DHT22;43673;51.058;3.734;2022-08-19T07:06:43;22.80;99.90
57843;DHT22;43673;51.058;3.734;2022-08-19T07:09:12;22.80;99.90
57843;DHT22;43673;51.058;3.734;2022-08-19T07:11:38;22.70;99.90
57843;DHT22;43673;51.058;3.734;2022-08-19T07:14:04;22.60;99.90
57843;DHT22;43673;51.058;3.734;2022-08-19T07:16:30;22.50;99.90
57843;DHT22;43673;51.058;3.734;2022-08-19T07:18:56;22.40;99.90
57843;DHT22;43673;51.058;3.734;2022-08-19T07:21:27;22.40;99.90
57843;DHT22;43673;51.058;3.734;2022-08-19T07:23:54;22.50;99.90
57843;DHT22;43673;51.058;3.734;2022-08-19T07:26:26;22.50;99.90
57843;DHT22;43673;51.058;3.734;2022-08-19T07:28:53;22.50;99.90
57843;DHT22;43673;51.058;3.734;2022-08-19T07:31:21;22.50;99.90
57843;DHT22;43673;51.058;3.734;2022-08-19T07:33:49;22.50;99.90
57843;DHT22;43673;51.058;3.734;2022-08-19T07:36:22;22.50;99.90
57843;DHT22;43673;51.058;3.734;2022-08-19T07:38:49;22.60;99.90
57843;DHT22;43673;51.058;3.734;2022-08-19T07:41:22;22.70;99.90
57843;DHT22;43673;51.058;3.734;2022-08-19T07:43:48;22.70;99.90
57843;DHT22;43673;51.058;3.734;2022-08-19T07:46:15;22.70;99.90
57843;DHT22;43673;51.058;3.734;2022-08-19T07:48:43;22.80;99.90
57843;DHT22;43673;51.058;3.734;2022-08-19T07:51:12;22.80;99.90
57843;DHT22;43673;51.058;3.734;2022-08-19T07:53:38;22.70;99.90
57843;DHT22;43673;51.058;3.734;2022-08-19T07:56:05;22.80;99.90
57843;DHT22;43673;51.058;3.734;2022-08-19T07:58:36;22.80;99.90
57843;DHT22;43673;51.058;3.734;2022-08-19T08:01:05;22.80;99.90
57843;DHT22;43673;51.058;3.734;2022-08-19T08:03:31;22.80;99.90
57843;DHT22;43673;51.058;3.734;2022-08-19T08:06:15;22.80;99.90
57843;DHT22;43673;51.058;3.734;2022-08-19T08:09:00;22.80;99.90
57843;DHT22;43673;51.058;3.734;2022-08-19T08:14:24;22.70;99.90
57843;DHT22;43673;51.058;3.734;2022-08-19T08:16:50;22.70;99.90
57843;DHT22;43673;51.058;3.734;2022-08-19T08:19:18;22.70;99.90
57843;DHT22;43673;51.058;3.734;2022-08-19T08:21:44;22.70;99.90
57843;DHT22;43673;51.058;3.734;2022-08-19T08:24:10;22.60;99.90
57843;DHT22;43673;51.058;3.734;2022-08-19T08:26:37;22.70;99.90
57843;DHT22;43673;51.058;3.734;2022-08-19T08:29:03;22.70;99.90
57843;DHT22;43673;51.058;3.734;2022-08-19T08:31:28;22.80;99.90
57843;DHT22;43673;51.058;3.734;2022-08-19T08:33:54;22.90;99.90
57843;DHT22;43673;51.058;3.734;2022-08-19T08:36:20;22.90;99.90
57843;DHT22;43673;51.058;3.734;2022-08-19T08:38:46;22.90;99.90
57843;DHT22;43673;51.058;3.734;2022-08-19T08:43:46;23.10;99.90
57843;DHT22;43673;51.058;3.734;2022-08-19T08:46:41;23.10;99.90
57843;DHT22;43673;51.058;3.734;2022-08-19T08:51:47;23.40;99.90
57843;DHT22;43673;51.058;3.734;2022-08-19T08:54:18;23.30;99.90
57843;DHT22;43673;51.058;3.734;2022-08-19T08:56:45;23.50;99.90
57843;DHT22;43673;51.058;3.734;2022-08-19T08:59:35;23.70;99.90
57843;DHT22;43673;51.058;3.734;2022-08-19T09:02:02;23.80;99.90
57843;DHT22;43673;51.058;3.734;2022-08-19T09:04:28;23.80;99.90
57843;DHT22;43673;51.058;3.734;2022-08-19T09:06:56;23.80;99.90
57843;DHT22;43673;51.058;3.734;2022-08-19T09:09:38;23.80;99.90
57843;DHT22;43673;51.058;3.734;2022-08-19T09:15:06;23.70;99.90
57843;DHT22;43673;51.058;3.734;2022-08-19T09:17:34;23.70;99.90
57843;DHT22;43673;51.058;3.734;2022-08-19T09:20:06;23.70;99.90
57843;DHT22;43673;51.058;3.734;2022-08-19T09:22:41;23.50;99.90
57843;DHT22;43673;51.058;3.734;2022-08-19T09:25:09;23.60;99.90
57843;DHT22;43673;51.058;3.734;2022-08-19T09:27:37;24.00;99.90
57843;DHT22;43673;51.058;3.734;2022-08-19T09:30:05;24.40;99.90
57843;DHT22;43673;51.058;3.734;2022-08-19T09:32:32;24.70;99.90
57843;DHT22;43673;51.058;3.734;2022-08-19T09:34:58;25.30;99.90
57843;DHT22;43673;51.058;3.734;2022-08-19T09:37:27;25.90;99.90
57843;DHT22;43673;51.058;3.734;2022-08-19T09:39:53;26.20;99.90
57843;DHT22;43673;51.058;3.734;2022-08-19T09:42:20;26.40;99.90
57843;DHT22;43673;51.058;3.734;2022-08-19T09:44:46;26.70;99.90
57843;DHT22;43673;51.058;3.734;2022-08-19T09:47:13;27.10;99.90
57843;DHT22;43673;51.058;3.734;2022-08-19T09:49:40;27.60;99.90
57843;DHT22;43673;51.058;3.734;2022-08-19T09:52:10;27.60;99.90
57843;DHT22;43673;51.058;3.734;2022-08-19T09:54:38;27.90;99.90
57843;DHT22;43673;51.058;3.734;2022-08-19T09:57:05;28.00;99.90
57843;DHT22;43673;51.058;3.734;2022-08-19T09:59:33;27.80;99.90
57843;DHT22;43673;51.058;3.734;2022-08-19T10:01:58;27.20;99.90
57843;DHT22;43673;51.058;3.734;2022-08-19T10:04:24;27.10;99.90
57843;DHT22;43673;51.058;3.734;2022-08-19T10:07:10;26.80;99.90
57843;DHT22;43673;51.058;3.734;2022-08-19T10:09:36;26.50;99.90
57843;DHT22;43673;51.058;3.734;2022-08-19T10:12:03;26.20;99.90
57843;DHT22;43673;51.058;3.734;2022-08-19T10:14:30;26.10;99.90
57843;DHT22;43673;51.058;3.734;2022-08-19T10:16:56;26.00;99.90
57843;DHT22;43673;51.058;3.734;2022-08-19T10:19:22;25.90;99.90
57843;DHT22;43673;51.058;3.734;2022-08-19T10:21:48;25.90;99.90
57843;DHT22;43673;51.058;3.734;2022-08-19T10:24:14;25.80;99.90
57843;DHT22;43673;51.058;3.734;2022-08-19T10:26:40;25.60;99.90
57843;DHT22;43673;51.058;3.734;2022-08-19T10:29:12;25.50;99.90
57843;DHT22;43673;51.058;3.734;2022-08-19T10:31:41;25.50;99.90
57843;DHT22;43673;51.058;3.734;2022-08-19T10:34:07;25.70;99.90
57843;DHT22;43673;51.058;3.734;2022-08-19T10:36:38;25.90;99.90
57843;DHT22;43673;51.058;3.734;2022-08-19T10:39:07;26.40;99.90
57843;DHT22;43673;51.058;3.734;2022-08-19T10:41:36;26.90;99.90
57843;DHT22;43673;51.058;3.734;2022-08-19T10:44:08;27.00;99.90
57843;DHT22;43673;51.058;3.734;2022-08-19T10:46:40;27.00;99.90
57843;DHT22;43673;51.058;3.734;2022-08-19T10:49:08;26.70;99.90
57843;DHT22;43673;51.058;3.734;2022-08-19T10:51:34;26.60;99.90
57843;DHT22;43673;51.058;3.734;2022-08-19T10:54:19;26.70;99.90
57843;DHT22;43673;51.058;3.734;2022-08-19T10:56:45;26.70;99.90
57843;DHT22;43673;51.058;3.734;2022-08-19T10:59:21;26.70;99.90
57843;DHT22;43673;51.058;3.734;2022-08-19T11:01:48;26.70;99.90
57843;DHT22;43673;51.058;3.734;2022-08-19T11:04:14;26.60;99.90
57843;DHT22;43673;51.058;3.734;2022-08-19T11:06:44;26.60;99.90
57843;DHT22;43673;51.058;3.734;2022-08-19T11:09:16;26.50;99.90
57843;DHT22;43673;51.058;3.734;2022-08-19T11:11:43;26.40;99.90
57843;DHT22;43673;51.058;3.734;2022-08-19T11:14:14;26.40;99.90
57843;DHT22;43673;51.058;3.734;2022-08-19T11:16:41;26.30;99.90
57843;DHT22;43673;51.058;3.734;2022-08-19T11:19:10;26.30;99.90
57843;DHT22;43673;51.058;3.734;2022-08-19T11:21:43;26.30;99.90
57843;DHT22;43673;51.058;3.734;2022-08-19T11:24:19;26.30;99.90
57843;DHT22;43673;51.058;3.734;2022-08-19T11:26:47;26.20;99.90
57843;DHT22;43673;51.058;3.734;2022-08-19T11:29:15;26.20;99.90
57843;DHT22;43673;51.058;3.734;2022-08-19T11:31:43;26.20;99.90
57843;DHT22;43673;51.058;3.734;2022-08-19T11:34:13;26.20;99.90
57843;DHT22;43673;51.058;3.734;2022-08-19T11:36:41;26.10;99.90
57843;DHT22;43673;51.058;3.734;2022-08-19T11:39:09;26.20;99.90
57843;DHT22;43673;51.058;3.734;2022-08-19T11:41:35;26.30;99.90
57843;DHT22;43673;51.058;3.734;2022-08-19T11:44:01;26.40;99.90
57843;DHT22;43673;51.058;3.734;2022-08-19T11:46:28;26.50;99.90
57843;DHT22;43673;51.058;3.734;2022-08-19T11:48:56;26.50;99.90
57843;DHT22;43673;51.058;3.734;2022-08-19T11:51:23;26.70;99.90
57843;DHT22;43673;51.058;3.734;2022-08-19T11:53:54;26.90;99.90
57843;DHT22;43673;51.058;3.734;2022-08-19T11:56:21;27.10;99.90
57843;DHT22;43673;51.058;3.734;2022-08-19T11:58:48;27.20;99.90
57843;DHT22;43673;51.058;3.734;2022-08-19T12:01:17;27.20;99.90
57843;DHT22;43673;51.058;3.734;2022-08-19T12:03:44;27.30;99.90
57843;DHT22;43673;51.058;3.734;2022-08-19T12:06:14;27.20;99.90
57843;DHT22;43673;51.058;3.734;2022-08-19T12:08:40;27.20;99.90
57843;DHT22;43673;51.058;3.734;2022-08-19T12:11:07;27.20;99.90
57843;DHT22;43673;51.058;3.734;2022-08-19T12:13:37;27.40;99.90
57843;DHT22;43673;51.058;3.734;2022-08-19T12:16:10;27.70;99.90
57843;DHT22;43673;51.058;3.734;2022-08-19T12:18:41;27.90;99.90
57843;DHT22;43673;51.058;3.734;2022-08-19T12:21:09;28.00;99.90
57843;DHT22;43673;51.058;3.734;2022-08-19T12:23:36;28.20;99.90
57843;DHT22;43673;51.058;3.734;2022-08-19T12:26:03;28.30;99.90
57843;DHT22;43673;51.058;3.734;2022-08-19T12:28:30;28.30;99.90
57843;DHT22;43673;51.058;3.734;2022-08-19T12:30:56;28.40;99.90
57843;DHT22;43673;51.058;3.734;2022-08-19T12:33:22;28.40;99.90
57843;DHT22;43673;51.058;3.734;2022-08-19T12:35:51;28.40;99.90
57843;DHT22;43673;51.058;3.734;2022-08-19T12:38:17;28.20;99.90
57843;DHT22;43673;51.058;3.734;2022-08-19T12:40:47;28.00;99.90
57843;DHT22;43673;51.058;3.734;2022-08-19T12:43:14;27.80;99.90
57843;DHT22;43673;51.058;3.734;2022-08-19T12:45:41;27.60;99.90
57843;DHT22;43673;51.058;3.734;2022-08-19T12:48:08;27.70;99.90
57843;DHT22;43673;51.058;3.734;2022-08-19T12:50:34;27.80;99.90
57843;DHT22;43673;51.058;3.734;2022-08-19T12:53:00;27.90;99.90
57843;DHT22;43673;51.058;3.734;2022-08-19T12:55:25;27.60;99.90
57843;DHT22;43673;51.058;3.734;2022-08-19T12:57:53;27.50;99.90
57843;DHT22;43673;51.058;3.734;2022-08-19T13:00:21;27.30;99.90
57843;DHT22;43673;51.058;3.734;2022-08-19T13:02:49;27.40;99.90
57843;DHT22;43673;51.058;3.734;2022-08-19T13:05:20;27.30;99.90
57843;DHT22;43673;51.058;3.734;2022-08-19T13:07:48;27.20;99.90
57843;DHT22;43673;51.058;3.734;2022-08-19T13:10:16;27.30;99.90
57843;DHT22;43673;51.058;3.734;2022-08-19T13:12:44;27.50;99.90
57843;DHT22;43673;51.058;3.734;2022-08-19T13:15:11;27.70;99.90
57843;DHT22;43673;51.058;3.734;2022-08-19T13:17:38;27.90;99.90
57843;DHT22;43673;51.058;3.734;2022-08-19T13:20:05;27.90;99.90
57843;DHT22;43673;51.058;3.734;2022-08-19T13:22:33;27.70;99.90
57843;DHT22;43673;51.058;3.734;2022-08-19T13:25:01;27.10;99.90
57843;DHT22;43673;51.058;3.734;2022-08-19T13:27:26;26.20;99.90
57843;DHT22;43673;51.058;3.734;2022-08-19T13:29:52;25.50;99.90
57843;DHT22;43673;51.058;3.734;2022-08-19T13:32:36;25.00;99.90
57843;DHT22;43673;51.058;3.734;2022-08-19T13:35:21;24.70;99.90
57843;DHT22;43673;51.058;3.734;2022-08-19T13:37:46;24.40;99.90
57843;DHT22;43673;51.058;3.734;2022-08-19T13:40:19;24.20;99.90
57843;DHT22;43673;51.058;3.734;2022-08-19T13:42:48;24.00;99.90
57843;DHT22;43673;51.058;3.734;2022-08-19T13:45:16;23.90;99.90
57843;DHT22;43673;51.058;3.734;2022-08-19T13:47:49;24.10;99.90
57843;DHT22;43673;51.058;3.734;2022-08-19T13:50:20;24.40;99.90
57843;DHT22;43673;51.058;3.734;2022-08-19T13:52:46;24.60;99.90
57843;DHT22;43673;51.058;3.734;2022-08-19T13:55:13;24.70;99.90
57843;DHT22;43673;51.058;3.734;2022-08-19T13:57:40;24.90;99.90
57843;DHT22;43673;51.058;3.734;2022-08-19T14:00:09;25.00;99.90
57843;DHT22;43673;51.058;3.734;2022-08-19T14:02:36;25.20;99.90
57843;DHT22;43673;51.058;3.734;2022-08-19T14:05:04;25.40;99.90
57843;DHT22;43673;51.058;3.734;2022-08-19T14:07:30;25.70;99.90
57843;DHT22;43673;51.058;3.734;2022-08-19T14:09:56;26.10;99.90
57843;DHT22;43673;51.058;3.734;2022-08-19T14:12:25;26.40;99.90
57843;DHT22;43673;51.058;3.734;2022-08-19T14:14:50;26.50;99.90
57843;DHT22;43673;51.058;3.734;2022-08-19T14:17:16;26.40;99.90
57843;DHT22;43673;51.058;3.734;2022-08-19T14:19:42;26.30;99.90
57843;DHT22;43673;51.058;3.734;2022-08-19T14:22:08;26.30;99.90
57843;DHT22;43673;51.058;3.734;2022-08-19T14:24:36;26.30;99.90
57843;DHT22;43673;51.058;3.734;2022-08-19T14:27:02;26.30;99.90
57843;DHT22;43673;51.058;3.734;2022-08-19T14:29:28;26.30;99.90
57843;DHT22;43673;51.058;3.734;2022-08-19T14:31:54;26.30;99.90
57843;DHT22;43673;51.058;3.734;2022-08-19T14:34:21;26.30;99.90
57843;DHT22;43673;51.058;3.734;2022-08-19T14:36:48;26.20;99.90
57843;DHT22;43673;51.058;3.734;2022-08-19T14:39:13;26.30;99.90
57843;DHT22;43673;51.058;3.734;2022-08-19T14:41:40;26.40;99.90
57843;DHT22;43673;51.058;3.734;2022-08-19T14:44:07;26.60;99.90
57843;DHT22;43673;51.058;3.734;2022-08-19T14:46:35;26.90;99.90
57843;DHT22;43673;51.058;3.734;2022-08-19T14:49:01;27.10;99.90
57843;DHT22;43673;51.058;3.734;2022-08-19T14:51:27;27.30;99.90
57843;DHT22;43673;51.058;3.734;2022-08-19T14:53:53;27.40;99.90
57843;DHT22;43673;51.058;3.734;2022-08-19T14:56:21;27.40;99.90
57843;DHT22;43673;51.058;3.734;2022-08-19T14:58:48;27.30;99.90
57843;DHT22;43673;51.058;3.734;2022-08-19T15:01:17;27.20;99.90
57843;DHT22;43673;51.058;3.734;2022-08-19T15:03:43;27.10;99.90
57843;DHT22;43673;51.058;3.734;2022-08-19T15:06:08;27.00;99.90
57843;DHT22;43673;51.058;3.734;2022-08-19T15:08:36;26.90;99.90
57843;DHT22;43673;51.058;3.734;2022-08-19T15:11:11;26.80;99.90
57843;DHT22;43673;51.058;3.734;2022-08-19T15:13:40;26.70;99.90
57843;DHT22;43673;51.058;3.734;2022-08-19T15:16:06;26.70;99.90
57843;DHT22;43673;51.058;3.734;2022-08-19T15:18:32;26.70;99.90
57843;DHT22;43673;51.058;3.734;2022-08-19T15:20:58;26.70;99.90
57843;DHT22;43673;51.058;3.734;2022-08-19T15:23:25;26.70;99.90
57843;DHT22;43673;51.058;3.734;2022-08-19T15:25:51;26.90;99.90
57843;DHT22;43673;51.058;3.734;2022-08-19T15:28:24;26.90;99.90
57843;DHT22;43673;51.058;3.734;2022-08-19T15:30:51;27.00;99.90
57843;DHT22;43673;51.058;3.734;2022-08-19T15:33:18;27.20;99.90
57843;DHT22;43673;51.058;3.734;2022-08-19T15:35:46;27.20;99.90
57843;DHT22;43673;51.058;3.734;2022-08-19T15:38:12;27.20;99.90
57843;DHT22;43673;51.058;3.734;2022-08-19T15:40:40;27.30;99.90
57843;DHT22;43673;51.058;3.734;2022-08-19T15:43:06;27.30;99.90
57843;DHT22;43673;51.058;3.734;2022-08-19T15:45:32;27.30;99.90
57843;DHT22;43673;51.058;3.734;2022-08-19T15:47:59;27.20;99.90